Time;durP1;ratioP1;P1;durP2;ratioP2;P2;SDS_P1;SDS_P2;PMS_P1;PMS_P2;Temp;Humidity;BMP_temperature;BMP_pressure;BME280_temperature;BME280_humidity;BME280_pressure;Samples;Min_cycle;Max_cycle;Signal;HPM_P1;HPM_P2
2021/06/11 00:02:14;;;;;;;10.10;7.25;;;;;;;13.92;98.33;97015.72;5062310;28;20041;-62
2021/06/11 00:04:39;;;;;;;15.73;7.15;;;;;;;13.97;98.42;97009.81;5060301;28;20071;-64
2021/06/11 00:07:04;;;;;;;9.68;7.30;;;;;;;14.10;97.72;97007.59;5057972;28;20592;-61
2021/06/11 00:09:30;;;;;;;9.10;6.38;;;;;;;14.14;96.86;97000.91;5062848;28;20036;-62
2021/06/11 00:11:55;;;;;;;10.57;7.00;;;;;;;14.11;97.10;97004.44;5063205;28;20040;-64
2021/06/11 00:14:21;;;;;;;10.48;7.15;;;;;;;14.05;96.76;97011.47;5071459;28;20197;-63
2021/06/11 00:16:46;;;;;;;12.75;7.85;;;;;;;13.91;97.39;97003.88;5072687;28;20041;-64
2021/06/11 00:19:12;;;;;;;11.30;6.97;;;;;;;13.91;97.70;97008.63;5064562;28;20496;-62
2021/06/11 00:21:37;;;;;;;9.02;6.65;;;;;;;14.01;97.41;97004.34;5073480;28;20406;-63
2021/06/11 00:24:05;;;;;;;15.75;7.72;;;;;;;13.98;96.39;96997.66;5058617;28;20048;-63
2021/06/11 00:26:30;;;;;;;12.52;7.20;;;;;;;13.95;96.16;96999.22;5062528;28;20045;-63
2021/06/11 00:28:55;;;;;;;13.45;7.47;;;;;;;13.87;97.10;97005.84;5062451;28;20406;-64
2021/06/11 00:31:21;;;;;;;12.85;7.05;;;;;;;13.83;96.92;97005.03;5056656;28;20951;-64
2021/06/11 00:33:46;;;;;;;10.07;6.45;;;;;;;13.39;98.67;97017.56;5067507;28;20385;-62
2021/06/11 00:36:11;;;;;;;9.30;6.50;;;;;;;13.35;99.29;97002.22;5072076;28;20039;-63
2021/06/11 00:38:37;;;;;;;12.13;7.43;;;;;;;13.46;99.26;96996.81;5062451;28;20044;-64
2021/06/11 00:41:03;;;;;;;12.93;7.25;;;;;;;13.57;99.10;96997.69;5065618;28;20568;-63
2021/06/11 00:43:29;;;;;;;12.05;7.50;;;;;;;13.60;98.38;97007.16;5062420;28;20047;-64
2021/06/11 00:45:54;;;;;;;11.98;6.88;;;;;;;13.63;98.09;97000.88;5082137;28;20044;-63
2021/06/11 00:48:20;;;;;;;12.10;7.38;;;;;;;13.58;98.02;97000.06;5072488;28;20078;-62
2021/06/11 00:50:45;;;;;;;15.85;7.55;;;;;;;13.48;98.47;96998.00;5080586;28;20044;-64
2021/06/11 00:53:11;;;;;;;9.90;6.95;;;;;;;13.38;98.71;97004.22;5054427;28;20040;-64
2021/06/11 00:55:43;;;;;;;10.80;7.10;;;;;;;13.23;98.80;96997.72;5059400;28;20711;-63
2021/06/11 00:58:10;;;;;;;14.13;7.20;;;;;;;13.23;99.88;97000.47;5056816;28;20036;-64
2021/06/11 01:00:35;;;;;;;12.18;6.93;;;;;;;13.43;99.52;96998.34;5062196;28;20048;-63
2021/06/11 01:03:00;;;;;;;8.52;6.47;;;;;;;13.53;98.34;96999.63;5062983;28;20063;-64
2021/06/11 01:05:26;;;;;;;13.35;7.53;;;;;;;13.39;98.26;96997.53;5057711;28;20776;-64
2021/06/11 01:07:55;;;;;;;11.48;6.85;;;;;;;13.46;98.92;96994.84;5063674;28;20045;-63
2021/06/11 01:10:21;;;;;;;9.63;7.10;;;;;;;13.50;98.55;96995.66;5069847;28;20046;-63
2021/06/11 01:12:48;;;;;;;9.80;7.20;;;;;;;13.50;97.90;96992.91;5070422;28;20177;-64
2021/06/11 01:15:14;;;;;;;9.90;7.50;;;;;;;13.50;97.80;96994.88;5071171;28;20040;-63
2021/06/11 01:17:41;;;;;;;10.15;6.35;;;;;;;13.48;97.25;97003.50;5067156;28;20095;-63
2021/06/11 01:20:10;;;;;;;9.30;6.20;;;;;;;13.54;97.99;97004.75;5087293;28;20048;-64
2021/06/11 01:22:56;;;;;;;16.98;7.65;;;;;;;13.60;97.68;97002.44;5094104;28;20040;-67
2021/06/11 01:25:42;;;;;;;9.63;6.50;;;;;;;13.59;97.17;97006.38;5089280;28;20951;-65
2021/06/11 01:28:10;;;;;;;11.82;6.22;;;;;;;13.74;96.85;97013.59;5041478;28;20072;-63
2021/06/11 01:30:36;;;;;;;11.18;6.82;;;;;;;13.63;96.79;97007.22;5073789;28;20054;-65
2021/06/11 01:33:03;;;;;;;14.05;7.88;;;;;;;13.56;95.79;97002.41;5080366;28;20036;-64
2021/06/11 01:35:42;;;;;;;11.80;7.70;;;;;;;13.63;96.92;96998.94;5076762;28;20050;-63
2021/06/11 01:38:13;;;;;;;12.00;7.28;;;;;;;13.63;96.33;96995.38;5075446;28;20044;-63
2021/06/11 01:40:42;;;;;;;11.25;7.22;;;;;;;13.60;96.32;97002.44;5082643;28;20051;-62
2021/06/11 01:43:07;;;;;;;10.80;7.60;;;;;;;13.48;96.94;97003.50;5076191;28;20048;-63
2021/06/11 01:45:33;;;;;;;11.48;7.10;;;;;;;13.54;96.86;96998.44;5080604;28;20043;-64
2021/06/11 01:48:00;;;;;;;10.50;6.47;;;;;;;13.74;95.45;96999.03;5079483;28;20039;-61
2021/06/11 01:50:31;;;;;;;13.30;6.55;;;;;;;13.81;94.15;97001.84;5075712;28;20366;-64
2021/06/11 01:52:59;;;;;;;11.60;6.60;;;;;;;13.69;94.68;97010.41;5080588;28;20051;-63
2021/06/11 01:55:30;;;;;;;10.93;7.05;;;;;;;13.64;95.25;97003.25;5073735;28;20751;-63
2021/06/11 01:57:58;;;;;;;9.18;6.30;;;;;;;13.63;94.90;97004.47;5079930;28;20039;-63
2021/06/11 02:00:25;;;;;;;12.88;8.43;;;;;;;13.52;95.29;96998.03;5073743;28;20040;-63
2021/06/11 02:02:50;;;;;;;13.88;7.20;;;;;;;13.39;94.34;97009.31;5080605;28;20162;-63
2021/06/11 02:05:16;;;;;;;11.93;7.00;;;;;;;13.15;95.63;97001.56;5070088;28;20040;-64
2021/06/11 02:07:45;;;;;;;13.27;7.53;;;;;;;12.95;96.73;97001.75;5079246;28;20040;-62
2021/06/11 02:10:11;;;;;;;10.45;7.18;;;;;;;12.94;97.53;96996.63;5075670;28;20040;-63
2021/06/11 02:12:38;;;;;;;10.48;7.70;;;;;;;13.07;97.26;96997.97;5079182;28;20074;-63
2021/06/11 02:15:07;;;;;;;11.68;6.90;;;;;;;13.24;96.99;97001.28;5076867;28;20036;-62
2021/06/11 02:17:36;;;;;;;14.27;6.85;;;;;;;13.37;96.71;97010.88;5078592;28;20040;-63
2021/06/11 02:20:05;;;;;;;14.55;7.60;;;;;;;13.46;96.86;96999.56;5077210;28;20040;-62
2021/06/11 02:22:32;;;;;;;14.88;7.63;;;;;;;13.50;96.70;96998.41;5079844;28;20492;-63
2021/06/11 02:24:57;;;;;;;18.65;7.68;;;;;;;13.66;96.13;97006.44;5080554;28;20139;-62
2021/06/11 02:27:23;;;;;;;12.45;7.47;;;;;;;13.68;95.87;96998.56;5075093;28;20144;-63
2021/06/11 02:29:48;;;;;;;11.70;7.38;;;;;;;13.69;96.02;97002.13;5080607;28;20046;-65
2021/06/11 02:32:15;;;;;;;11.88;7.40;;;;;;;13.73;96.08;97002.97;5075218;28;20442;-63
2021/06/11 02:34:41;;;;;;;9.70;7.47;;;;;;;13.76;95.10;97004.97;5080865;28;20040;-64
2021/06/11 02:37:06;;;;;;;11.30;7.75;;;;;;;13.72;95.08;97004.94;5074342;28;20108;-62
2021/06/11 02:39:31;;;;;;;10.55;6.80;;;;;;;13.68;95.27;97001.34;5078786;28;20369;-63
2021/06/11 02:42:07;;;;;;;10.52;7.22;;;;;;;13.64;94.92;97011.53;5080110;28;20083;-64
2021/06/11 02:44:35;;;;;;;10.55;6.40;;;;;;;13.62;94.55;97007.59;5078046;28;20442;-67
2021/06/11 02:47:21;;;;;;;10.18;7.03;;;;;;;13.59;94.79;97000.84;5079350;28;20466;-63
2021/06/11 02:49:53;;;;;;;12.02;7.47;;;;;;;13.47;94.15;97010.19;5078426;28;20138;-63
2021/06/11 02:52:24;;;;;;;10.43;7.47;;;;;;;13.27;92.37;97008.75;5073487;28;20051;-63
2021/06/11 02:54:54;;;;;;;12.23;8.30;;;;;;;13.07;93.99;97006.22;5081541;28;20473;-62
2021/06/11 02:57:45;;;;;;;12.20;7.68;;;;;;;13.01;95.54;97004.94;5075231;28;20044;-65
2021/06/11 03:00:11;;;;;;;12.50;7.93;;;;;;;13.01;96.05;97000.22;5073485;28;20400;-65
2021/06/11 03:02:54;;;;;;;11.73;8.50;;;;;;;12.96;96.07;97003.34;5076503;28;20052;-64
2021/06/11 03:05:22;;;;;;;12.63;7.97;;;;;;;12.90;95.21;97010.31;5074928;28;20052;-64
2021/06/11 03:07:53;;;;;;;12.75;7.75;;;;;;;12.89;96.06;97002.44;5078607;28;20135;-64
2021/06/11 03:10:23;;;;;;;11.82;7.15;;;;;;;12.78;94.90;97005.88;5075222;28;20032;-63
2021/06/11 03:12:50;;;;;;;;;;;;;;;12.85;96.58;96998.88;5079914;28;20157;-62
2021/06/11 03:15:15;;;;;;;10.38;7.32;;;;;;;12.91;96.76;96994.59;5076715;28;20396;-63
2021/06/11 03:17:50;;;;;;;10.93;6.97;;;;;;;12.92;96.50;97007.19;5080320;28;20040;-63
2021/06/11 03:20:22;;;;;;;14.10;7.10;;;;;;;12.80;95.34;97002.72;5071314;28;20039;-64
2021/06/11 03:23:01;;;;;;;11.10;7.65;;;;;;;12.95;96.53;96998.22;5080738;28;20393;-64
2021/06/11 03:25:32;;;;;;;;;;;;;;;12.85;95.84;97002.41;5076996;28;20047;-64
2021/06/11 03:28:04;;;;;;;10.45;6.90;;;;;;;12.74;96.33;97006.97;5080412;28;20008;-64
2021/06/11 03:30:32;;;;;;;11.55;7.88;;;;;;;12.67;96.31;97004.13;5079843;28;20046;-64
2021/06/11 03:33:02;;;;;;;10.55;7.30;;;;;;;12.60;96.06;97013.06;5079797;28;20055;-64
2021/06/11 03:36:07;;;;;;;14.85;7.88;;;;;;;12.52;96.44;97006.69;5077631;28;20048;-64
2021/06/11 03:38:36;;;;;;;10.40;6.78;;;;;;;12.67;96.94;97018.66;5059851;28;20388;-64
2021/06/11 03:41:03;;;;;;;11.50;6.88;;;;;;;12.78;96.60;97016.88;5084099;28;20040;-63
2021/06/11 03:43:30;;;;;;;10.73;6.43;;;;;;;12.82;96.27;97022.41;5078936;28;20048;-64
2021/06/11 03:45:58;;;;;;;11.23;6.47;;;;;;;12.99;95.81;97024.56;5094595;28;20046;-63
2021/06/11 03:48:27;;;;;;;11.75;6.75;;;;;;;13.10;95.14;97029.41;5095574;28;20466;-64
2021/06/11 03:50:53;;;;;;;12.93;7.32;;;;;;;13.11;94.42;97028.25;5084727;28;20092;-65
2021/06/11 03:53:23;;;;;;;11.00;7.35;;;;;;;13.19;94.49;97021.66;5059257;28;20044;-64
2021/06/11 03:55:53;;;;;;;14.82;7.30;;;;;;;13.23;94.50;97027.97;5079250;28;20102;-65
2021/06/11 03:58:27;;;;;;;11.32;6.88;;;;;;;13.35;94.76;97027.75;5072463;28;20094;-65
2021/06/11 04:00:58;;;;;;;9.75;7.30;;;;;;;13.40;93.71;97023.88;5061866;28;21534;-64
2021/06/11 04:03:24;;;;;;;10.52;7.25;;;;;;;13.53;93.35;97029.91;5058906;28;20043;-63
2021/06/11 04:05:55;;;;;;;8.27;6.45;;;;;;;13.57;92.50;97023.25;5062252;28;20138;-63
2021/06/11 04:08:23;;;;;;;10.50;6.85;;;;;;;13.66;92.26;97020.19;5069559;28;20505;-65
2021/06/11 04:10:55;;;;;;;9.60;6.68;;;;;;;13.80;91.44;97016.78;5074214;28;20048;-65
2021/06/11 04:13:28;;;;;;;9.63;6.00;;;;;;;13.90;90.00;97020.78;5076659;28;20503;-65
2021/06/11 04:15:57;;;;;;;10.20;6.72;;;;;;;14.03;89.39;97027.59;5081602;28;20048;-65
2021/06/11 04:18:30;;;;;;;10.18;6.88;;;;;;;14.22;88.52;97031.28;5058530;28;20441;-64
2021/06/11 04:20:59;;;;;;;9.50;5.93;;;;;;;14.36;87.79;97023.09;5082722;28;20036;-63
2021/06/11 04:23:32;;;;;;;8.63;6.53;;;;;;;14.57;86.75;97030.72;5076465;28;20071;-64
2021/06/11 04:26:01;;;;;;;11.95;6.93;;;;;;;14.69;86.22;97026.88;5083881;28;20127;-65
2021/06/11 04:28:31;;;;;;;9.35;6.78;;;;;;;14.83;85.76;97034.44;5075232;28;20051;-65
2021/06/11 04:30:58;;;;;;;9.88;6.38;;;;;;;14.93;84.94;97028.19;5091170;28;20527;-63
2021/06/11 04:33:25;;;;;;;10.80;6.35;;;;;;;15.16;84.60;97035.34;5077411;28;20276;-65
2021/06/11 04:35:51;;;;;;;9.38;6.50;;;;;;;15.36;83.29;97039.38;5049594;28;20045;-65
2021/06/11 04:38:18;;;;;;;11.27;6.15;;;;;;;15.60;82.19;97039.81;5058859;28;20045;-64
2021/06/11 04:40:44;;;;;;;9.18;6.05;;;;;;;15.84;81.16;97047.38;5069580;28;20064;-64
2021/06/11 04:43:10;;;;;;;8.07;6.22;;;;;;;16.09;79.83;97049.38;5068481;28;20045;-64
2021/06/11 04:45:35;;;;;;;10.30;6.55;;;;;;;16.37;79.18;97048.56;5083704;28;20097;-64
2021/06/11 04:48:02;;;;;;;10.82;6.32;;;;;;;16.99;77.76;97049.25;5081530;28;20032;-66
2021/06/11 04:50:27;;;;;;;10.50;6.15;;;;;;;18.26;72.54;97050.16;5059678;28;20036;-64
2021/06/11 04:52:53;;;;;;;6.72;4.97;;;;;;;19.83;67.00;97047.56;5082077;28;20056;-63
2021/06/11 04:55:19;;;;;;;9.93;5.32;;;;;;;21.01;61.07;97052.34;5078304;28;20062;-63
2021/06/11 04:57:44;;;;;;;8.18;5.40;;;;;;;21.04;58.42;97056.31;5082116;28;20105;-62
2021/06/11 05:00:10;;;;;;;8.07;4.97;;;;;;;21.95;55.49;97052.00;5072476;28;20044;-63
2021/06/11 05:02:36;;;;;;;9.32;4.22;;;;;;;22.70;54.42;97046.56;5081627;28;20044;-63
2021/06/11 05:05:02;;;;;;;12.43;4.55;;;;;;;23.42;52.04;97044.59;5083033;28;20516;-64
2021/06/11 05:07:27;;;;;;;6.97;5.18;;;;;;;24.00;50.70;97049.31;5078053;28;20044;-64
2021/06/11 05:09:53;;;;;;;9.18;4.50;;;;;;;24.57;47.85;97049.44;5068615;28;20121;-64
2021/06/11 05:12:18;;;;;;;6.38;4.63;;;;;;;24.80;47.54;97047.50;5072433;28;20064;-62
2021/06/11 05:14:44;;;;;;;7.32;4.63;;;;;;;24.91;47.33;97045.09;5079101;28;20058;-63
2021/06/11 05:17:09;;;;;;;6.38;4.35;;;;;;;25.53;45.56;97049.28;5057155;28;20063;-63
2021/06/11 05:19:35;;;;;;;6.57;4.70;;;;;;;26.31;44.53;97059.47;5061325;28;20554;-64
2021/06/11 05:22:01;;;;;;;8.20;4.70;;;;;;;26.82;43.06;97063.03;5058750;28;20047;-64
2021/06/11 05:24:26;;;;;;;7.75;4.80;;;;;;;26.32;44.16;97058.22;5073546;28;20044;-63
2021/06/11 05:26:52;;;;;;;7.70;4.20;;;;;;;27.61;41.23;97046.28;5069106;28;20431;-63
2021/06/11 05:29:18;;;;;;;7.50;4.38;;;;;;;27.80;40.07;97057.47;5076915;28;20040;-64
2021/06/11 05:31:43;;;;;;;8.60;3.88;;;;;;;28.18;40.13;97059.72;5045372;28;20041;-63
2021/06/11 05:34:09;;;;;;;8.10;5.20;;;;;;;28.28;39.43;97059.66;5073186;28;20052;-63
2021/06/11 05:36:34;;;;;;;8.18;5.30;;;;;;;29.18;37.80;97061.59;5068324;28;20044;-64
2021/06/11 05:39:00;;;;;;;7.55;4.78;;;;;;;29.00;38.61;97061.72;5080166;28;20419;-64
2021/06/11 05:41:25;;;;;;;6.70;5.18;;;;;;;26.48;43.02;97073.25;5075419;28;20040;-64
2021/06/11 05:43:52;;;;;;;8.13;5.60;;;;;;;23.78;50.36;97071.50;5080127;28;20048;-64
2021/06/11 05:46:17;;;;;;;9.05;5.57;;;;;;;22.41;54.18;97080.00;5068588;28;20044;-63
2021/06/11 05:48:43;;;;;;;7.22;5.18;;;;;;;22.11;55.55;97067.97;5079065;28;20097;-64
2021/06/11 05:51:09;;;;;;;11.32;6.00;;;;;;;21.90;57.77;97072.03;5090567;28;20044;-62
2021/06/11 05:53:36;;;;;;;6.57;5.15;;;;;;;24.59;50.31;97071.41;5087453;28;20044;-64
2021/06/11 05:56:02;;;;;;;10.70;6.15;;;;;;;25.53;47.11;97066.09;5078573;28;20135;-65
2021/06/11 05:58:27;;;;;;;10.15;5.35;;;;;;;26.21;45.10;97071.91;5068402;28;20047;-63
2021/06/11 06:00:53;;;;;;;7.68;5.55;;;;;;;23.70;50.36;97072.97;5077989;28;20043;-63
2021/06/11 06:03:19;;;;;;;7.85;5.07;;;;;;;22.91;52.96;97073.16;5065871;28;20074;-64
2021/06/11 06:05:45;;;;;;;8.15;5.72;;;;;;;19.70;64.41;97071.56;5068644;28;20045;-64
2021/06/11 06:08:11;;;;;;;7.95;6.05;;;;;;;19.99;64.93;97079.53;5062024;28;20085;-64
2021/06/11 06:10:36;;;;;;;8.40;6.13;;;;;;;20.02;64.62;97076.69;5080032;28;20051;-61
2021/06/11 06:13:02;;;;;;;9.48;5.22;;;;;;;20.27;63.17;97069.94;5058474;28;20439;-64
2021/06/11 06:15:27;;;;;;;8.13;5.05;;;;;;;20.76;61.65;97078.69;5076850;28;20044;-61
2021/06/11 06:17:53;;;;;;;6.32;5.03;;;;;;;21.08;61.66;97080.06;5079769;28;20048;-64
2021/06/11 06:20:18;;;;;;;8.02;5.07;;;;;;;19.82;65.80;97076.56;5061064;28;20193;-61
2021/06/11 06:22:45;;;;;;;9.10;6.03;;;;;;;20.47;64.72;97069.22;5079645;28;20040;-62
2021/06/11 06:25:12;;;;;;;7.75;5.47;;;;;;;21.28;62.29;97074.50;5057146;28;20056;-63
2021/06/11 06:27:39;;;;;;;6.15;4.40;;;;;;;23.54;54.58;97064.66;5060761;28;20053;-61
2021/06/11 06:30:06;;;;;;;5.20;4.22;;;;;;;23.48;53.82;97064.44;5074979;28;20040;-62
2021/06/11 06:32:32;;;;;;;5.90;4.38;;;;;;;25.87;48.11;97056.78;5049232;28;20032;-65
2021/06/11 06:34:57;;;;;;;6.88;4.30;;;;;;;25.84;47.13;97065.34;5077092;28;20262;-65
2021/06/11 06:37:23;;;;;;;7.55;4.80;;;;;;;24.97;48.75;97068.50;5068332;28;20886;-65
2021/06/11 06:39:50;;;;;;;5.72;3.97;;;;;;;23.37;54.13;97070.34;5060186;28;20044;-65
2021/06/11 06:42:16;;;;;;;8.88;4.50;;;;;;;24.73;50.96;97070.94;5065312;28;20374;-64
2021/06/11 06:44:41;;;;;;;6.78;4.85;;;;;;;26.86;45.00;97069.28;5079062;28;20078;-64
2021/06/11 06:47:07;;;;;;;5.60;3.83;;;;;;;27.64;43.22;97076.28;5054321;28;20073;-64
2021/06/11 06:49:34;;;;;;;5.65;3.70;;;;;;;28.50;40.74;97074.22;5079699;28;20040;-64
2021/06/11 06:52:00;;;;;;;6.68;3.25;;;;;;;28.89;39.83;97071.50;5065941;28;20117;-65
2021/06/11 06:54:25;;;;;;;8.25;4.20;;;;;;;28.99;40.30;97069.41;5073886;28;20028;-63
2021/06/11 06:56:51;;;;;;;4.93;3.55;;;;;;;27.44;42.09;97076.81;5077361;28;20127;-62
2021/06/11 06:59:16;;;;;;;6.18;4.47;;;;;;;22.82;53.93;97080.59;5070400;28;20039;-64
2021/06/11 07:01:42;;;;;;;7.65;4.25;;;;;;;24.27;52.56;97072.44;5070506;28;20076;-64
2021/06/11 07:04:07;;;;;;;9.27;4.38;;;;;;;24.39;52.33;97077.25;5058816;28;20110;-64
2021/06/11 07:06:33;;;;;;;5.93;4.07;;;;;;;23.81;54.10;97081.84;5079115;28;20044;-63
2021/06/11 07:08:58;;;;;;;6.82;3.83;;;;;;;26.58;46.87;97085.28;5060264;28;20045;-64
2021/06/11 07:11:25;;;;;;;7.30;4.15;;;;;;;27.87;43.03;97073.25;5054372;28;20048;-64
2021/06/11 07:13:51;;;;;;;8.80;4.13;;;;;;;29.05;40.74;97073.13;5069430;28;20156;-65
2021/06/11 07:16:16;;;;;;;5.55;3.58;;;;;;;29.09;39.90;97072.94;5074131;28;20438;-66
2021/06/11 07:18:42;;;;;;;6.82;3.90;;;;;;;29.47;38.65;97077.00;5060370;28;20044;-65
2021/06/11 07:21:09;;;;;;;4.70;4.03;;;;;;;28.93;40.37;97079.78;5073180;28;20044;-63
2021/06/11 07:23:35;;;;;;;8.80;4.40;;;;;;;29.48;37.90;97070.88;5079564;28;20044;-64
2021/06/11 07:26:05;;;;;;;7.40;4.47;;;;;;;25.88;47.59;97078.00;5057415;28;20071;-63
2021/06/11 07:28:33;;;;;;;5.80;3.70;;;;;;;28.58;41.71;97067.03;5060496;28;20067;-63
2021/06/11 07:30:58;;;;;;;7.68;4.20;;;;;;;29.83;37.73;97077.94;5076705;28;20040;-64
2021/06/11 07:33:24;;;;;;;5.80;4.07;;;;;;;30.25;37.10;97066.28;5077947;28;20040;-63
2021/06/11 07:35:50;;;;;;;5.55;3.90;;;;;;;30.26;37.30;97072.72;5079505;28;20139;-63
2021/06/11 07:38:15;;;;;;;10.68;4.45;;;;;;;29.12;39.22;97069.94;5074831;28;20046;-64
2021/06/11 07:40:40;;;;;;;6.75;3.60;;;;;;;28.82;41.24;97071.09;5078486;28;20044;-64
2021/06/11 07:43:06;;;;;;;5.97;4.05;;;;;;;28.79;40.75;97073.63;5074474;28;20044;-63
2021/06/11 07:45:31;;;;;;;5.30;4.20;;;;;;;27.53;43.46;97080.84;5075619;28;20106;-63
2021/06/11 07:47:57;;;;;;;5.88;3.75;;;;;;;29.02;41.39;97065.63;5063253;28;20055;-63
2021/06/11 07:50:22;;;;;;;4.95;3.40;;;;;;;29.97;39.22;97071.50;5058275;28;20702;-65
2021/06/11 07:52:48;;;;;;;6.10;4.05;;;;;;;29.59;38.79;97069.53;5067614;28;20049;-64
2021/06/11 07:55:15;;;;;;;7.00;4.20;;;;;;;27.85;43.59;97066.06;5081853;28;20401;-65
2021/06/11 07:57:40;;;;;;;7.82;4.25;;;;;;;28.57;41.06;97064.69;5068449;28;20047;-64
2021/06/11 08:00:07;;;;;;;6.50;3.97;;;;;;;28.53;41.28;97066.88;5060947;28;20044;-63
2021/06/11 08:02:32;;;;;;;6.10;4.00;;;;;;;28.73;40.65;97071.94;5072561;28;20059;-63
2021/06/11 08:04:58;;;;;;;7.45;3.97;;;;;;;26.64;46.04;97064.56;5075076;28;20064;-63
2021/06/11 08:07:29;;;;;;;5.88;4.07;;;;;;;26.20;48.25;97061.94;5062899;28;20361;-66
2021/06/11 08:09:58;;;;;;;7.78;5.95;;;;;;;26.63;46.63;97062.22;5084152;28;20032;-62
2021/06/11 08:12:25;;;;;;;9.48;5.03;;;;;;;26.83;45.98;97065.38;5064179;28;20701;-65
2021/06/11 08:14:50;;;;;;;12.30;4.78;;;;;;;26.88;45.83;97063.97;5064422;28;20102;-63
2021/06/11 08:17:17;;;;;;;6.75;4.25;;;;;;;26.92;46.84;97064.63;5059124;28;20044;-64
2021/06/11 08:19:42;;;;;;;5.97;3.80;;;;;;;27.61;45.77;97057.53;5075193;28;20404;-65
2021/06/11 08:22:08;;;;;;;6.50;4.70;;;;;;;27.86;44.75;97061.22;5078200;28;20040;-64
2021/06/11 08:24:33;;;;;;;6.68;5.05;;;;;;;26.84;46.28;97068.97;5083564;28;20127;-62
2021/06/11 08:26:59;;;;;;;9.88;4.88;;;;;;;26.97;46.58;97060.38;5081591;28;20036;-63
2021/06/11 08:29:25;;;;;;;9.23;4.47;;;;;;;26.76;46.55;97062.88;5075715;28;20044;-66
2021/06/11 08:31:51;;;;;;;8.40;5.18;;;;;;;26.84;46.41;97060.53;5079339;28;20042;-64
2021/06/11 08:34:17;;;;;;;6.40;4.43;;;;;;;26.91;46.18;97060.22;5075552;28;21488;-63
2021/06/11 08:36:43;;;;;;;7.07;4.35;;;;;;;27.57;44.96;97062.56;5081692;28;20036;-62
2021/06/11 08:39:09;;;;;;;8.77;4.75;;;;;;;27.72;44.94;97062.66;5071708;28;20051;-65
2021/06/11 08:41:35;;;;;;;6.88;4.20;;;;;;;27.31;45.92;97055.72;5064071;28;20134;-63
2021/06/11 08:44:01;;;;;;;6.18;4.32;;;;;;;26.88;46.92;97064.78;5082731;28;20044;-64
2021/06/11 08:46:28;;;;;;;9.00;4.93;;;;;;;26.33;47.85;97065.41;5076055;28;20040;-63
2021/06/11 08:48:55;;;;;;;7.32;4.93;;;;;;;26.69;46.96;97066.75;5080307;28;20067;-64
2021/06/11 08:51:20;;;;;;;8.85;5.45;;;;;;;25.22;51.15;97071.66;5071366;28;20036;-64
2021/06/11 08:53:46;;;;;;;5.97;4.53;;;;;;;24.39;54.38;97071.66;5080938;28;20522;-64
2021/06/11 08:56:12;;;;;;;6.22;5.15;;;;;;;25.90;50.13;97069.13;5071705;28;20041;-62
2021/06/11 08:58:41;;;;;;;8.85;5.57;;;;;;;26.13;49.08;97065.03;5077364;28;20044;-64
2021/06/11 09:01:08;;;;;;;7.60;4.57;;;;;;;26.14;49.93;97063.78;5074996;28;20071;-62
2021/06/11 09:03:47;;;;;;;8.48;5.15;;;;;;;26.55;49.12;97063.75;5080933;28;20036;-63
2021/06/11 09:06:14;;;;;;;7.40;4.85;;;;;;;26.40;49.26;97072.78;5077223;28;20051;-63
2021/06/11 09:09:04;;;;;;;8.18;4.85;;;;;;;26.67;49.17;97066.44;5063131;28;20096;-65
2021/06/11 09:11:33;;;;;;;6.90;4.93;;;;;;;26.15;49.99;97062.56;5078506;28;20040;-62
2021/06/11 09:14:12;;;;;;;6.90;5.13;;;;;;;25.68;50.95;97064.34;5061123;28;20461;-65
2021/06/11 09:16:42;;;;;;;8.38;6.13;;;;;;;25.68;51.40;97060.75;5060394;28;20041;-64
2021/06/11 09:19:07;;;;;;;8.98;5.57;;;;;;;25.85;51.18;97064.09;5055030;28;20431;-64
2021/06/11 09:21:45;;;;;;;8.27;6.15;;;;;;;25.65;51.83;97067.28;5061544;28;20101;-63
2021/06/11 09:24:27;;;;;;;7.65;5.55;;;;;;;25.57;51.65;97058.38;5061163;28;20052;-64
2021/06/11 09:26:56;;;;;;;8.88;5.85;;;;;;;25.42;52.52;97063.69;5061935;28;20513;-66
2021/06/11 09:29:29;;;;;;;10.55;5.25;;;;;;;25.47;52.16;97065.16;5046073;28;20046;-64
2021/06/11 09:32:16;;;;;;;8.57;4.95;;;;;;;25.91;50.78;97070.66;5070677;28;20040;-65
2021/06/11 09:35:03;;;;;;;8.63;4.70;;;;;;;26.58;48.98;97065.63;5065916;28;20037;-64
2021/06/11 09:37:34;;;;;;;9.73;5.60;;;;;;;26.89;48.20;97062.72;5044129;28;20068;-64
2021/06/11 09:40:01;;;;;;;9.30;4.93;;;;;;;26.88;47.54;97058.34;5076124;28;20132;-63
2021/06/11 09:42:28;;;;;;;7.65;5.32;;;;;;;26.78;48.18;97056.78;5076381;28;20040;-65
2021/06/11 09:44:55;;;;;;;7.63;5.20;;;;;;;26.67;48.39;97058.03;5081337;28;20127;-64
2021/06/11 09:47:37;;;;;;;10.23;5.78;;;;;;;26.67;48.57;97057.25;5075864;28;20040;-64
2021/06/11 09:50:03;;;;;;;9.60;5.35;;;;;;;26.54;49.36;97059.38;5079637;28;20040;-62
2021/06/11 09:52:34;;;;;;;7.72;5.07;;;;;;;26.62;47.71;97053.03;5074907;28;20476;-64
2021/06/11 09:55:03;;;;;;;6.53;4.93;;;;;;;27.01;46.96;97053.38;5065171;28;20043;-64
2021/06/11 09:57:33;;;;;;;8.98;5.43;;;;;;;26.81;47.29;97053.84;5077593;28;20043;-63
2021/06/11 10:00:00;;;;;;;8.40;5.18;;;;;;;26.78;47.27;97045.56;5079574;28;20135;-64
2021/06/11 10:02:29;;;;;;;7.20;4.90;;;;;;;26.57;48.71;97050.03;5067342;28;20044;-64
2021/06/11 10:04:55;;;;;;;8.55;5.50;;;;;;;26.37;50.49;97044.84;5059143;28;20396;-64
2021/06/11 10:07:21;;;;;;;9.45;5.45;;;;;;;26.35;50.02;97042.50;5054008;28;20067;-64
2021/06/11 10:09:46;;;;;;;9.60;5.70;;;;;;;26.99;46.95;97047.44;5078514;28;20031;-64
2021/06/11 10:12:12;;;;;;;8.20;5.57;;;;;;;27.12;46.95;97049.28;5034173;28;20042;-65
2021/06/11 10:14:39;;;;;;;7.90;6.13;;;;;;;26.77;48.17;97041.19;5059934;28;20503;-65
2021/06/11 10:17:06;;;;;;;6.82;5.07;;;;;;;26.83;47.81;97039.28;5058885;28;20040;-63
2021/06/11 10:19:31;;;;;;;7.55;5.50;;;;;;;26.41;47.89;97037.81;5083391;28;20044;-64
2021/06/11 10:21:57;;;;;;;9.60;5.80;;;;;;;26.82;47.82;97029.31;5072551;28;20051;-66
2021/06/11 10:24:23;;;;;;;10.20;5.15;;;;;;;26.87;46.48;97028.69;5073137;28;20052;-65
2021/06/11 10:26:49;;;;;;;6.72;5.50;;;;;;;26.61;47.17;97031.00;5080518;28;20511;-67
2021/06/11 10:29:17;;;;;;;8.57;5.45;;;;;;;27.07;44.83;97026.19;5056778;28;20051;-65
2021/06/11 10:31:43;;;;;;;7.28;5.30;;;;;;;27.52;44.54;97020.22;5083840;28;20077;-65
2021/06/11 10:34:10;;;;;;;6.50;4.97;;;;;;;27.20;44.35;97031.63;5075480;28;20059;-65
2021/06/11 10:36:42;;;;;;;7.55;5.18;;;;;;;27.19;44.96;97016.03;5080708;28;20104;-66
2021/06/11 10:39:11;;;;;;;6.85;5.38;;;;;;;26.46;47.49;97022.38;5074715;28;20468;-65
2021/06/11 10:42:00;;;;;;;9.32;5.80;;;;;;;26.42;48.91;97013.34;5071508;28;20050;-67
2021/06/11 10:44:46;;;;;;;9.32;6.15;;;;;;;25.56;47.16;97021.09;5053930;28;20037;-66
2021/06/11 10:47:17;;;;;;;7.28;5.68;;;;;;;25.43;49.59;97012.00;5071764;28;20048;-64
2021/06/11 10:49:55;;;;;;;7.63;5.80;;;;;;;25.93;48.68;97007.28;5060647;28;20401;-67
2021/06/11 10:52:38;;;;;;;7.63;5.28;;;;;;;26.25;47.32;97016.44;5054161;28;20135;-65
2021/06/11 10:55:26;;;;;;;8.60;5.25;;;;;;;26.04;46.84;97008.88;5068612;28;20552;-61
2021/06/11 10:57:51;;;;;;;7.22;5.35;;;;;;;26.08;44.95;97006.72;5065788;28;20044;-65
2021/06/11 11:00:23;;;;;;;7.23;4.57;;;;;;;26.10;46.96;97009.81;5074819;28;20047;-69
2021/06/11 11:02:50;;;;;;;6.35;3.95;;;;;;;26.20;45.79;97005.81;5069385;28;20278;-66
2021/06/11 11:05:29;;;;;;;6.97;4.82;;;;;;;26.29;44.84;97002.25;5054699;28;20036;-64
2021/06/11 11:07:55;;;;;;;7.53;4.70;;;;;;;26.08;45.34;97013.09;5073132;28;20472;-67
2021/06/11 11:10:35;;;;;;;7.80;4.93;;;;;;;25.85;46.58;97008.00;5057732;28;20054;-66
2021/06/11 11:13:03;;;;;;;7.40;4.88;;;;;;;26.04;46.90;97006.06;5060039;28;20037;-66
2021/06/11 11:15:43;;;;;;;7.65;4.88;;;;;;;26.19;45.91;97000.66;5074496;28;20047;-66
2021/06/11 11:18:14;;;;;;;6.25;4.53;;;;;;;26.61;44.81;96995.25;5057781;28;20177;-65
2021/06/11 11:20:42;;;;;;;7.65;4.57;;;;;;;26.82;43.81;96995.59;5064853;28;20045;-66
2021/06/11 11:23:13;;;;;;;9.93;5.68;;;;;;;25.69;46.18;97001.38;5060785;28;20040;-66
2021/06/11 11:25:41;;;;;;;6.63;4.88;;;;;;;25.98;45.62;96999.50;5069017;28;20049;-67
2021/06/11 11:28:09;;;;;;;6.47;4.80;;;;;;;25.34;47.72;96990.31;5056756;28;20040;-66
2021/06/11 11:30:35;;;;;;;10.18;5.43;;;;;;;25.94;47.23;96996.84;5081314;28;20155;-68
2021/06/11 11:33:01;;;;;;;9.88;5.88;;;;;;;26.15;45.35;96983.97;5046001;28;20074;-66
2021/06/11 11:35:31;;;;;;;9.48;5.82;;;;;;;26.34;46.08;96987.56;5059098;28;20435;-67
2021/06/11 11:37:57;;;;;;;8.07;4.90;;;;;;;26.38;44.13;96982.59;5064225;28;20041;-65